sensor_id;sensor_type;location;lat;lon;timestamp;pressure;altitude;pressure_sealevel;temperature;humidity
8334;BME280;4204;43.004;23.052;2022-09-02T04:52:35;93574.78;;;18.73;100.00
8334;BME280;4204;43.004;23.052;2022-09-02T04:55:04;93573.63;;;18.70;100.00
8334;BME280;4204;43.004;23.052;2022-09-02T04:57:34;93583.69;;;18.77;100.00
8334;BME280;4204;43.004;23.052;2022-09-02T05:00:05;93586.81;;;18.79;100.00
8334;BME280;4204;43.004;23.052;2022-09-02T05:02:34;93580.28;;;18.83;100.00
8334;BME280;4204;43.004;23.052;2022-09-02T05:05:02;93578.63;;;18.72;100.00
8334;BME280;4204;43.004;23.052;2022-09-02T05:07:38;93578.75;;;18.82;100.00
8334;BME280;4204;43.004;23.052;2022-09-02T05:10:08;93583.78;;;18.87;100.00
8334;BME280;4204;43.004;23.052;2022-09-02T05:12:42;93578.09;;;18.96;100.00
8334;BME280;4204;43.004;23.052;2022-09-02T05:15:11;93573.81;;;18.91;100.00
8334;BME280;4204;43.004;23.052;2022-09-02T05:17:39;93574.50;;;18.81;100.00
8334;BME280;4204;43.004;23.052;2022-09-02T05:20:08;93569.59;;;18.90;100.00
8334;BME280;4204;43.004;23.052;2022-09-02T05:22:39;93572.25;;;18.87;100.00
8334;BME280;4204;43.004;23.052;2022-09-02T05:25:08;93582.88;;;18.73;100.00
8334;BME280;4204;43.004;23.052;2022-09-02T05:27:37;93583.25;;;18.71;100.00
8334;BME280;4204;43.004;23.052;2022-09-02T05:30:07;93578.34;;;18.80;100.00
8334;BME280;4204;43.004;23.052;2022-09-02T05:32:35;93579.16;;;18.84;100.00
8334;BME280;4204;43.004;23.052;2022-09-02T05:35:04;93586.88;;;18.89;100.00
8334;BME280;4204;43.004;23.052;2022-09-02T05:37:33;93588.53;;;18.97;100.00
8334;BME280;4204;43.004;23.052;2022-09-02T05:40:04;93589.75;;;19.03;100.00
8334;BME280;4204;43.004;23.052;2022-09-02T05:42:34;93592.06;;;19.05;100.00
8334;BME280;4204;43.004;23.052;2022-09-02T05:45:04;93596.34;;;19.09;100.00
8334;BME280;4204;43.004;23.052;2022-09-02T05:47:33;93587.16;;;19.14;100.00
8334;BME280;4204;43.004;23.052;2022-09-02T05:50:02;93578.22;;;19.10;100.00
8334;BME280;4204;43.004;23.052;2022-09-02T05:52:34;93587.59;;;19.19;100.00
8334;BME280;4204;43.004;23.052;2022-09-02T05:55:04;93584.13;;;19.22;100.00
8334;BME280;4204;43.004;23.052;2022-09-02T05:57:37;93585.69;;;19.23;100.00
8334;BME280;4204;43.004;23.052;2022-09-02T06:00:08;93581.09;;;19.27;100.00
8334;BME280;4204;43.004;23.052;2022-09-02T06:02:49;93589.31;;;19.34;100.00
8334;BME280;4204;43.004;23.052;2022-09-02T06:05:23;93586.16;;;19.32;100.00
8334;BME280;4204;43.004;23.052;2022-09-02T06:08:04;93596.25;;;19.39;100.00
8334;BME280;4204;43.004;23.052;2022-09-02T06:10:33;93587.03;;;19.44;100.00
8334;BME280;4204;43.004;23.052;2022-09-02T06:13:07;93596.69;;;19.45;100.00
8334;BME280;4204;43.004;23.052;2022-09-02T06:15:39;93595.94;;;19.48;100.00
8334;BME280;4204;43.004;23.052;2022-09-02T06:18:10;93600.16;;;19.45;100.00
8334;BME280;4204;43.004;23.052;2022-09-02T06:20:39;93601.72;;;19.46;100.00
8334;BME280;4204;43.004;23.052;2022-09-02T06:23:07;93599.41;;;19.45;100.00
8334;BME280;4204;43.004;23.052;2022-09-02T06:25:37;93600.19;;;19.49;100.00
8334;BME280;4204;43.004;23.052;2022-09-02T06:28:08;93602.91;;;19.49;100.00
8334;BME280;4204;43.004;23.052;2022-09-02T06:30:40;93601.75;;;19.50;100.00
8334;BME280;4204;43.004;23.052;2022-09-02T06:33:10;93606.03;;;19.54;100.00
8334;BME280;4204;43.004;23.052;2022-09-02T06:35:43;93600.69;;;19.61;100.00
8334;BME280;4204;43.004;23.052;2022-09-02T06:38:13;93609.91;;;19.60;100.00
8334;BME280;4204;43.004;23.052;2022-09-02T06:40:49;93612.22;;;19.62;100.00
8334;BME280;4204;43.004;23.052;2022-09-02T06:43:22;93623.03;;;19.62;100.00
8334;BME280;4204;43.004;23.052;2022-09-02T06:46:16;93616.50;;;19.63;100.00
8334;BME280;4204;43.004;23.052;2022-09-02T06:48:47;93628.41;;;19.62;100.00
8334;BME280;4204;43.004;23.052;2022-09-02T06:51:19;93620.41;;;19.69;100.00
8334;BME280;4204;43.004;23.052;2022-09-02T06:53:49;93625.41;;;19.70;100.00
8334;BME280;4204;43.004;23.052;2022-09-02T06:56:18;93631.97;;;19.69;100.00
8334;BME280;4204;43.004;23.052;2022-09-02T06:58:46;93633.50;;;19.70;100.00
8334;BME280;4204;43.004;23.052;2022-09-02T07:01:18;93633.94;;;19.76;100.00
8334;BME280;4204;43.004;23.052;2022-09-02T07:03:46;93633.94;;;19.76;100.00
8334;BME280;4204;43.004;23.052;2022-09-02T07:06:33;93634.59;;;19.62;100.00
8334;BME280;4204;43.004;23.052;2022-09-02T07:09:04;93636.56;;;19.65;100.00
8334;BME280;4204;43.004;23.052;2022-09-02T07:11:35;93638.19;;;19.77;100.00
8334;BME280;4204;43.004;23.052;2022-09-02T07:14:03;93631.75;;;19.88;100.00
8334;BME280;4204;43.004;23.052;2022-09-02T07:16:33;93632.56;;;19.96;100.00
8334;BME280;4204;43.004;23.052;2022-09-02T07:19:03;93634.47;;;19.99;100.00
8334;BME280;4204;43.004;23.052;2022-09-02T07:21:32;93637.63;;;20.04;100.00
8334;BME280;4204;43.004;23.052;2022-09-02T07:24:00;93644.22;;;20.07;100.00
8334;BME280;4204;43.004;23.052;2022-09-02T07:26:29;93638.38;;;20.05;100.00
8334;BME280;4204;43.004;23.052;2022-09-02T07:28:58;93645.75;;;20.08;100.00
8334;BME280;4204;43.004;23.052;2022-09-02T07:31:27;93634.88;;;20.01;100.00
8334;BME280;4204;43.004;23.052;2022-09-02T07:33:56;93640.66;;;19.99;100.00
8334;BME280;4204;43.004;23.052;2022-09-02T07:36:25;93635.28;;;20.03;100.00
8334;BME280;4204;43.004;23.052;2022-09-02T07:38:55;93637.63;;;20.04;100.00
8334;BME280;4204;43.004;23.052;2022-09-02T07:41:23;93645.41;;;20.13;100.00
8334;BME280;4204;43.004;23.052;2022-09-02T07:43:51;93639.63;;;20.14;100.00
8334;BME280;4204;43.004;23.052;2022-09-02T07:46:21;93641.63;;;20.21;100.00
8334;BME280;4204;43.004;23.052;2022-09-02T07:48:49;93640.06;;;20.20;100.00
8334;BME280;4204;43.004;23.052;2022-09-02T07:51:18;93645.91;;;20.26;100.00
8334;BME280;4204;43.004;23.052;2022-09-02T07:53:46;93648.59;;;20.26;100.00
8334;BME280;4204;43.004;23.052;2022-09-02T07:56:14;93637.41;;;20.27;100.00
8334;BME280;4204;43.004;23.052;2022-09-02T07:58:44;93635.44;;;20.21;100.00
8334;BME280;4204;43.004;23.052;2022-09-02T08:01:13;93647.03;;;20.25;100.00
8334;BME280;4204;43.004;23.052;2022-09-02T08:03:42;93645.13;;;20.29;100.00
8334;BME280;4204;43.004;23.052;2022-09-02T08:06:12;93649.38;;;20.30;100.00
8334;BME280;4204;43.004;23.052;2022-09-02T08:08:41;93654.03;;;20.36;100.00
8334;BME280;4204;43.004;23.052;2022-09-02T08:11:08;93659.44;;;20.36;100.00
8334;BME280;4204;43.004;23.052;2022-09-02T08:13:38;93659.47;;;20.40;100.00
8334;BME280;4204;43.004;23.052;2022-09-02T08:16:06;93659.50;;;20.43;100.00
8334;BME280;4204;43.004;23.052;2022-09-02T08:18:34;93659.50;;;20.43;100.00
8334;BME280;4204;43.004;23.052;2022-09-02T08:21:03;93660.69;;;20.49;100.00
8334;BME280;4204;43.004;23.052;2022-09-02T08:23:31;93652.97;;;20.48;100.00
8334;BME280;4204;43.004;23.052;2022-09-02T08:25:58;93664.16;;;20.46;100.00
8334;BME280;4204;43.004;23.052;2022-09-02T08:28:27;93656.03;;;20.46;100.00
8334;BME280;4204;43.004;23.052;2022-09-02T08:30:57;93670.75;;;20.52;100.00
8334;BME280;4204;43.004;23.052;2022-09-02T08:33:25;93657.63;;;20.58;100.00
8334;BME280;4204;43.004;23.052;2022-09-02T08:35:54;93656.91;;;20.61;100.00
8334;BME280;4204;43.004;23.052;2022-09-02T08:38:23;93660.00;;;20.66;100.00
8334;BME280;4204;43.004;23.052;2022-09-02T08:40:51;93660.38;;;20.65;100.00
8334;BME280;4204;43.004;23.052;2022-09-02T08:43:27;93654.19;;;20.64;100.00
8334;BME280;4204;43.004;23.052;2022-09-02T08:45:59;93663.44;;;20.63;100.00
8334;BME280;4204;43.004;23.052;2022-09-02T08:48:35;93661.19;;;20.72;100.00
8334;BME280;4204;43.004;23.052;2022-09-02T08:51:06;93659.66;;;20.75;100.00
8334;BME280;4204;43.004;23.052;2022-09-02T08:53:42;93661.59;;;20.78;100.00
8334;BME280;4204;43.004;23.052;2022-09-02T08:56:14;93661.63;;;20.81;100.00
8334;BME280;4204;43.004;23.052;2022-09-02T08:58:45;93656.56;;;20.76;100.00
8334;BME280;4204;43.004;23.052;2022-09-02T09:01:23;93655.78;;;20.76;100.00
8334;BME280;4204;43.004;23.052;2022-09-02T09:07:15;93646.53;;;20.80;100.00
8334;BME280;4204;43.004;23.052;2022-09-02T09:09:59;93651.19;;;20.83;100.00
8334;BME280;4204;43.004;23.052;2022-09-02T09:12:42;93650.41;;;20.86;100.00
8334;BME280;4204;43.004;23.052;2022-09-02T09:15:18;93649.63;;;20.86;100.00
8334;BME280;4204;43.004;23.052;2022-09-02T09:17:51;93629.94;;;20.78;100.00
8334;BME280;4204;43.004;23.052;2022-09-02T09:20:25;93645.00;;;20.90;100.00
8334;BME280;4204;43.004;23.052;2022-09-02T09:22:55;93650.41;;;20.86;100.00
8334;BME280;4204;43.004;23.052;2022-09-02T09:25:26;93647.38;;;20.95;100.00
8334;BME280;4204;43.004;23.052;2022-09-02T09:27:55;93645.06;;;20.93;100.00
8334;BME280;4204;43.004;23.052;2022-09-02T09:30:23;93646.19;;;20.96;100.00
8334;BME280;4204;43.004;23.052;2022-09-02T09:32:53;93639.66;;;21.01;100.00
8334;BME280;4204;43.004;23.052;2022-09-02T09:35:23;93643.53;;;21.00;100.00
8334;BME280;4204;43.004;23.052;2022-09-02T09:37:52;93644.34;;;21.04;100.00
8334;BME280;4204;43.004;23.052;2022-09-02T09:40:29;93641.28;;;21.16;100.00
8334;BME280;4204;43.004;23.052;2022-09-02T09:43:10;93642.41;;;21.08;100.00
8334;BME280;4204;43.004;23.052;2022-09-02T09:45:40;93645.16;;;21.25;100.00
8334;BME280;4204;43.004;23.052;2022-09-02T09:48:26;93636.66;;;21.34;100.00
8334;BME280;4204;43.004;23.052;2022-09-02T09:51:12;93639.00;;;21.42;100.00
8334;BME280;4204;43.004;23.052;2022-09-02T09:53:41;93639.78;;;21.43;100.00
8334;BME280;4204;43.004;23.052;2022-09-02T09:56:25;93641.31;;;21.44;100.00
8334;BME280;4204;43.004;23.052;2022-09-02T09:58:55;93638.22;;;21.42;100.00
8334;BME280;4204;43.004;23.052;2022-09-02T10:01:27;93635.91;;;21.44;100.00
8334;BME280;4204;43.004;23.052;2022-09-02T10:03:59;93622.38;;;21.37;100.00
8334;BME280;4204;43.004;23.052;2022-09-02T10:06:39;93624.31;;;21.47;100.00
8334;BME280;4204;43.004;23.052;2022-09-02T10:09:24;93630.50;;;21.44;100.00
8334;BME280;4204;43.004;23.052;2022-09-02T10:11:58;93632.44;;;21.43;100.00
8334;BME280;4204;43.004;23.052;2022-09-02T10:14:32;93638.25;;;21.49;100.00
8334;BME280;4204;43.004;23.052;2022-09-02T10:17:08;93635.16;;;21.50;100.00
8334;BME280;4204;43.004;23.052;2022-09-02T10:19:43;93636.31;;;21.53;100.00
8334;BME280;4204;43.004;23.052;2022-09-02T10:25:18;93632.81;;;21.66;100.00
8334;BME280;4204;43.004;23.052;2022-09-02T10:27:54;93637.50;;;21.77;100.00
8334;BME280;4204;43.004;23.052;2022-09-02T10:30:29;93637.50;;;21.80;100.00
8334;BME280;4204;43.004;23.052;2022-09-02T10:33:15;93632.47;;;21.86;100.00
8334;BME280;4204;43.004;23.052;2022-09-02T10:35:47;93621.63;;;21.71;100.00
8334;BME280;4204;43.004;23.052;2022-09-02T10:38:31;93636.34;;;21.85;100.00
8334;BME280;4204;43.004;23.052;2022-09-02T10:41:10;93639.06;;;21.99;100.00
8334;BME280;4204;43.004;23.052;2022-09-02T10:44:06;93640.59;;;22.00;100.00
8334;BME280;4204;43.004;23.052;2022-09-02T10:46:42;93635.56;;;22.05;100.00
8334;BME280;4204;43.004;23.052;2022-09-02T10:49:24;93639.03;;;22.02;100.00
8334;BME280;4204;43.004;23.052;2022-09-02T10:52:02;93639.06;;;21.99;100.00
8334;BME280;4204;43.004;23.052;2022-09-02T10:54:42;93636.34;;;21.99;100.00
8334;BME280;4204;43.004;23.052;2022-09-02T10:57:15;93625.09;;;21.79;100.00
8334;BME280;4204;43.004;23.052;2022-09-02T10:59:51;93637.91;;;21.93;100.00
8334;BME280;4204;43.004;23.052;2022-09-02T11:02:23;93639.44;;;21.97;100.00
8334;BME280;4204;43.004;23.052;2022-09-02T11:04:57;93630.53;;;22.04;100.00
8334;BME280;4204;43.004;23.052;2022-09-02T11:07:28;93629.00;;;22.10;100.00
8334;BME280;4204;43.004;23.052;2022-09-02T11:10:03;93625.09;;;22.14;100.00
8334;BME280;4204;43.004;23.052;2022-09-02T11:12:34;93632.84;;;22.12;100.00
8334;BME280;4204;43.004;23.052;2022-09-02T11:15:11;93625.88;;;22.15;100.00
8334;BME280;4204;43.004;23.052;2022-09-02T11:17:47;93634.41;;;22.13;100.00
8334;BME280;4204;43.004;23.052;2022-09-02T11:20:28;93643.69;;;22.12;100.00
8334;BME280;4204;43.004;23.052;2022-09-02T11:25:42;93635.56;;;22.09;100.00
8334;BME280;4204;43.004;23.052;2022-09-02T11:28:25;93632.47;;;22.03;100.00
8334;BME280;4204;43.004;23.052;2022-09-02T11:30:58;93620.13;;;21.95;100.00
8334;BME280;4204;43.004;23.052;2022-09-02T11:33:42;93620.50;;;21.97;100.00
8334;BME280;4204;43.004;23.052;2022-09-02T11:36:11;93623.22;;;21.97;100.00
8334;BME280;4204;43.004;23.052;2022-09-02T11:38:42;93621.66;;;22.03;100.00
8334;BME280;4204;43.004;23.052;2022-09-02T11:41:27;93618.91;;;22.17;100.00
8334;BME280;4204;43.004;23.052;2022-09-02T11:44:10;93609.63;;;22.22;100.00
8334;BME280;4204;43.004;23.052;2022-09-02T11:47:02;93617.38;;;22.13;100.00
8334;BME280;4204;43.004;23.052;2022-09-02T11:50:02;93615.78;;;22.22;100.00
8334;BME280;4204;43.004;23.052;2022-09-02T11:52:51;93615.03;;;22.18;100.00
8334;BME280;4204;43.004;23.052;2022-09-02T11:55:32;93614.25;;;22.28;100.00
8334;BME280;4204;43.004;23.052;2022-09-02T11:58:04;93618.88;;;22.38;100.00
8334;BME280;4204;43.004;23.052;2022-09-02T12:00:33;93604.16;;;22.36;100.00
8334;BME280;4204;43.004;23.052;2022-09-02T12:03:19;93612.66;;;22.41;100.00
8334;BME280;4204;43.004;23.052;2022-09-02T12:06:03;93613.41;;;22.45;100.00
8334;BME280;4204;43.004;23.052;2022-09-02T12:08:57;93615.75;;;22.40;100.00
8334;BME280;4204;43.004;23.052;2022-09-02T12:11:43;93616.91;;;22.39;100.00
8334;BME280;4204;43.004;23.052;2022-09-02T12:17:36;93609.94;;;22.41;100.00
8334;BME280;4204;43.004;23.052;2022-09-02T12:20:08;93613.81;;;22.44;100.00
8334;BME280;4204;43.004;23.052;2022-09-02T12:22:37;93610.38;;;22.22;100.00
8334;BME280;4204;43.004;23.052;2022-09-02T12:28:16;93610.28;;;22.54;100.00
8334;BME280;4204;43.004;23.052;2022-09-02T12:31:14;93604.47;;;22.66;100.00
8334;BME280;4204;43.004;23.052;2022-09-02T12:33:45;93595.59;;;22.66;100.00
8334;BME280;4204;43.004;23.052;2022-09-02T12:36:46;93590.88;;;22.77;100.00
8334;BME280;4204;43.004;23.052;2022-09-02T12:39:44;93598.63;;;22.75;100.00
8334;BME280;4204;43.004;23.052;2022-09-02T12:42:21;93592.81;;;22.73;100.00
8334;BME280;4204;43.004;23.052;2022-09-02T12:44:55;93591.25;;;22.75;100.00
8334;BME280;4204;43.004;23.052;2022-09-02T12:51:54;93590.06;;;22.83;100.00
8334;BME280;4204;43.004;23.052;2022-09-02T12:54:28;93585.41;;;22.84;100.00
8334;BME280;4204;43.004;23.052;2022-09-02T12:56:58;93601.28;;;22.85;100.00
8334;BME280;4204;43.004;23.052;2022-09-02T12:59:28;93592.75;;;22.90;100.00
8334;BME280;4204;43.004;23.052;2022-09-02T13:02:05;93592.34;;;22.92;100.00
8334;BME280;4204;43.004;23.052;2022-09-02T13:04:45;93588.47;;;22.93;100.00
8334;BME280;4204;43.004;23.052;2022-09-02T13:07:41;93580.41;;;22.82;100.00
8334;BME280;4204;43.004;23.052;2022-09-02T13:10:55;93577.28;;;22.84;100.00
8334;BME280;4204;43.004;23.052;2022-09-02T13:17:10;93583.19;;;22.61;100.00
8334;BME280;4204;43.004;23.052;2022-09-02T13:20:12;93584.78;;;22.44;100.00
8334;BME280;4204;43.004;23.052;2022-09-02T13:23:18;93588.31;;;22.20;100.00
8334;BME280;4204;43.004;23.052;2022-09-02T13:26:05;93592.59;;;22.04;100.00
8334;BME280;4204;43.004;23.052;2022-09-02T13:29:04;93601.16;;;21.88;100.00
8334;BME280;4204;43.004;23.052;2022-09-02T13:31:38;93598.03;;;21.90;100.00
8334;BME280;4204;43.004;23.052;2022-09-02T13:34:10;93594.19;;;22.01;100.00
8334;BME280;4204;43.004;23.052;2022-09-02T13:36:42;93603.84;;;21.99;100.00
8334;BME280;4204;43.004;23.052;2022-09-02T13:39:14;93580.25;;;21.67;100.00
8334;BME280;4204;43.004;23.052;2022-09-02T13:41:43;93606.56;;;21.74;100.00
8334;BME280;4204;43.004;23.052;2022-09-02T13:44:12;93601.13;;;21.63;100.00
8334;BME280;4204;43.004;23.052;2022-09-02T13:46:47;93604.63;;;21.53;100.00
8334;BME280;4204;43.004;23.052;2022-09-02T13:49:23;93610.00;;;21.50;100.00
8334;BME280;4204;43.004;23.052;2022-09-02T13:51:53;93618.09;;;21.25;100.00
8334;BME280;4204;43.004;23.052;2022-09-02T13:54:33;93619.28;;;21.21;100.00
8334;BME280;4204;43.004;23.052;2022-09-02T13:57:04;93612.31;;;21.16;100.00
8334;BME280;4204;43.004;23.052;2022-09-02T13:59:35;93608.03;;;21.15;100.00
8334;BME280;4204;43.004;23.052;2022-09-02T14:02:22;93608.81;;;21.19;100.00
8334;BME280;4204;43.004;23.052;2022-09-02T14:04:56;93618.06;;;21.11;100.00
8334;BME280;4204;43.004;23.052;2022-09-02T14:07:30;93623.09;;;21.09;100.00
8334;BME280;4204;43.004;23.052;2022-09-02T14:10:02;93622.69;;;21.04;100.00
8334;BME280;4204;43.004;23.052;2022-09-02T14:12:32;93612.22;;;20.91;100.00
8334;BME280;4204;43.004;23.052;2022-09-02T14:15:01;93622.94;;;20.70;100.00
8334;BME280;4204;43.004;23.052;2022-09-02T14:17:29;93616.31;;;20.54;100.00
8334;BME280;4204;43.004;23.052;2022-09-02T14:20:17;93619.78;;;20.54;100.00
8334;BME280;4204;43.004;23.052;2022-09-02T14:22:51;93624.75;;;20.42;100.00
8334;BME280;4204;43.004;23.052;2022-09-02T14:25:22;93620.41;;;20.23;100.00
8334;BME280;4204;43.004;23.052;2022-09-02T14:27:52;93631.47;;;20.07;100.00
8334;BME280;4204;43.004;23.052;2022-09-02T14:30:31;93626.06;;;20.07;100.00
8334;BME280;4204;43.004;23.052;2022-09-02T14:33:16;93637.16;;;19.92;100.00
8334;BME280;4204;43.004;23.052;2022-09-02T14:35:57;93645.41;;;19.66;100.00
8334;BME280;4204;43.004;23.052;2022-09-02T14:38:28;93642.72;;;19.66;100.00
8334;BME280;4204;43.004;23.052;2022-09-02T14:41:02;93643.91;;;19.68;100.00
8334;BME280;4204;43.004;23.052;2022-09-02T14:43:39;93648.41;;;19.54;100.00
8334;BME280;4204;43.004;23.052;2022-09-02T14:46:14;93654.06;;;19.42;100.00
8334;BME280;4204;43.004;23.052;2022-09-02T14:48:51;93646.06;;;19.49;100.00
8334;BME280;4204;43.004;23.052;2022-09-02T14:51:20;93649.50;;;19.49;100.00
8334;BME280;4204;43.004;23.052;2022-09-02T14:53:48;93649.09;;;19.44;100.00
8334;BME280;4204;43.004;23.052;2022-09-02T14:56:47;93652.88;;;19.39;100.00
8334;BME280;4204;43.004;23.052;2022-09-02T14:59:15;93657.41;;;19.31;100.00
8334;BME280;4204;43.004;23.052;2022-09-02T15:01:45;93657.84;;;19.33;100.00
8334;BME280;4204;43.004;23.052;2022-09-02T15:04:14;93659.31;;;19.27;100.00
8334;BME280;4204;43.004;23.052;2022-09-02T15:06:42;93645.69;;;19.13;100.00
8334;BME280;4204;43.004;23.052;2022-09-02T15:09:10;93655.44;;;19.28;100.00
8334;BME280;4204;43.004;23.052;2022-09-02T15:11:40;93661.16;;;19.20;100.00
8334;BME280;4204;43.004;23.052;2022-09-02T15:14:09;93660.81;;;19.25;100.00
8334;BME280;4204;43.004;23.052;2022-09-02T15:16:37;93661.22;;;19.27;100.00
8334;BME280;4204;43.004;23.052;2022-09-02T15:19:05;93650.81;;;19.25;100.00
8334;BME280;4204;43.004;23.052;2022-09-02T15:21:33;93657.75;;;19.26;100.00
8334;BME280;4204;43.004;23.052;2022-09-02T15:24:01;93663.50;;;19.21;100.00
8334;BME280;4204;43.004;23.052;2022-09-02T15:26:29;93663.19;;;19.30;100.00
8334;BME280;4204;43.004;23.052;2022-09-02T15:28:58;93667.72;;;19.22;100.00
8334;BME280;4204;43.004;23.052;2022-09-02T15:31:25;93660.00;;;19.21;100.00
8334;BME280;4204;43.004;23.052;2022-09-02T15:33:53;93668.19;;;19.28;100.00
8334;BME280;4204;43.004;23.052;2022-09-02T15:36:21;93670.81;;;19.24;100.00
8334;BME280;4204;43.004;23.052;2022-09-02T15:38:50;93670.69;;;19.10;100.00
8334;BME280;4204;43.004;23.052;2022-09-02T15:41:19;93670.78;;;19.17;100.00
8334;BME280;4204;43.004;23.052;2022-09-02T15:43:48;93674.84;;;19.04;100.00
8334;BME280;4204;43.004;23.052;2022-09-02T15:46:20;93676.84;;;19.11;100.00
8334;BME280;4204;43.004;23.052;2022-09-02T15:48:48;93672.56;;;19.06;100.00
8334;BME280;4204;43.004;23.052;2022-09-02T15:51:18;93662.47;;;19.00;100.00
8334;BME280;4204;43.004;23.052;2022-09-02T15:53:46;93684.78;;;18.97;100.00
8334;BME280;4204;43.004;23.052;2022-09-02T15:56:16;93679.69;;;18.88;100.00
8334;BME280;4204;43.004;23.052;2022-09-02T15:58:45;93673.50;;;18.88;100.00
8334;BME280;4204;43.004;23.052;2022-09-02T16:01:13;93687.38;;;18.86;100.00
8334;BME280;4204;43.004;23.052;2022-09-02T16:03:43;93689.00;;;18.94;100.00
8334;BME280;4204;43.004;23.052;2022-09-02T16:06:10;93696.69;;;18.96;100.00
8334;BME280;4204;43.004;23.052;2022-09-02T16:08:38;93700.88;;;18.90;100.00
8334;BME280;4204;43.004;23.052;2022-09-02T16:11:07;93698.44;;;18.81;100.00
8334;BME280;4204;43.004;23.052;2022-09-02T16:13:35;93697.28;;;18.79;100.00
8334;BME280;4204;43.004;23.052;2022-09-02T16:16:05;93698.41;;;18.78;100.00
8334;BME280;4204;43.004;23.052;2022-09-02T16:18:33;93700.75;;;18.79;100.00
8334;BME280;4204;43.004;23.052;2022-09-02T16:21:05;93708.41;;;18.77;100.00
8334;BME280;4204;43.004;23.052;2022-09-02T16:23:33;93704.94;;;18.77;100.00
8334;BME280;4204;43.004;23.052;2022-09-02T16:26:09;93702.56;;;18.72;100.00
8334;BME280;4204;43.004;23.052;2022-09-02T16:28:38;93713.38;;;18.75;100.00
8334;BME280;4204;43.004;23.052;2022-09-02T16:31:07;93708.34;;;18.70;100.00
8334;BME280;4204;43.004;23.052;2022-09-02T16:33:35;93703.09;;;18.81;100.00
8334;BME280;4204;43.004;23.052;2022-09-02T16:36:05;93706.63;;;18.88;100.00
8334;BME280;4204;43.004;23.052;2022-09-02T16:38:33;93708.50;;;18.84;100.00
8334;BME280;4204;43.004;23.052;2022-09-02T16:41:01;93715.03;;;18.83;100.00
8334;BME280;4204;43.004;23.052;2022-09-02T16:43:30;93721.16;;;18.80;100.00
8334;BME280;4204;43.004;23.052;2022-09-02T16:45:59;93731.13;;;18.76;100.00
8334;BME280;4204;43.004;23.052;2022-09-02T16:48:30;93723.69;;;18.66;100.00
8334;BME280;4204;43.004;23.052;2022-09-02T16:51:04;93726.03;;;18.71;100.00
8334;BME280;4204;43.004;23.052;2022-09-02T16:53:31;93730.53;;;18.60;100.00
8334;BME280;4204;43.004;23.052;2022-09-02T16:55:59;93719.31;;;18.58;100.00
8334;BME280;4204;43.004;23.052;2022-09-02T16:58:28;93722.88;;;18.62;100.00
8334;BME280;4204;43.004;23.052;2022-09-02T17:00:57;93730.25;;;18.69;100.00
8334;BME280;4204;43.004;23.052;2022-09-02T17:03:24;93711.78;;;18.71;100.00
8334;BME280;4204;43.004;23.052;2022-09-02T17:05:52;93717.94;;;18.68;100.00
8334;BME280;4204;43.004;23.052;2022-09-02T17:08:21;93707.81;;;18.61;100.00
8334;BME280;4204;43.004;23.052;2022-09-02T17:10:49;93717.97;;;18.71;100.00
8334;BME280;4204;43.004;23.052;2022-09-02T17:13:17;93728.75;;;18.71;100.00
8334;BME280;4204;43.004;23.052;2022-09-02T17:15:44;93721.81;;;18.70;100.00
8334;BME280;4204;43.004;23.052;2022-09-02T17:18:12;93721.81;;;18.70;100.00
8334;BME280;4204;43.004;23.052;2022-09-02T17:20:40;93729.94;;;18.74;100.00
8334;BME280;4204;43.004;23.052;2022-09-02T17:23:07;93729.06;;;18.66;100.00
8334;BME280;4204;43.004;23.052;2022-09-02T17:25:38;93728.69;;;18.68;100.00
8334;BME280;4204;43.004;23.052;2022-09-02T17:28:06;93738.97;;;18.58;100.00
8334;BME280;4204;43.004;23.052;2022-09-02T17:30:34;93737.03;;;18.59;100.00
8334;BME280;4204;43.004;23.052;2022-09-02T17:33:01;93735.44;;;18.54;100.00
8334;BME280;4204;43.004;23.052;2022-09-02T17:35:30;93743.91;;;18.53;100.00
8334;BME280;4204;43.004;23.052;2022-09-02T17:37:57;93748.50;;;18.52;100.00
8334;BME280;4204;43.004;23.052;2022-09-02T17:40:26;93747.31;;;18.50;100.00
8334;BME280;4204;43.004;23.052;2022-09-02T17:43:12;93742.63;;;18.43;100.00
8334;BME280;4204;43.004;23.052;2022-09-02T17:45:40;93746.97;;;18.29;100.00
8334;BME280;4204;43.004;23.052;2022-09-02T17:48:08;93744.88;;;18.19;100.00
8334;BME280;4204;43.004;23.052;2022-09-02T17:50:36;93743.59;;;18.09;100.00
8334;BME280;4204;43.004;23.052;2022-09-02T17:53:05;93744.47;;;18.17;100.00
8334;BME280;4204;43.004;23.052;2022-09-02T17:55:32;93746.41;;;18.16;100.00
8334;BME280;4204;43.004;23.052;2022-09-02T17:58:06;93747.13;;;18.13;100.00
8334;BME280;4204;43.004;23.052;2022-09-02T18:00:38;93744.06;;;18.15;100.00
8334;BME280;4204;43.004;23.052;2022-09-02T18:03:22;93754.78;;;18.11;100.00
8334;BME280;4204;43.004;23.052;2022-09-02T18:06:06;93749.28;;;18.04;100.00
8334;BME280;4204;43.004;23.052;2022-09-02T18:08:44;93751.19;;;18.04;100.00
8334;BME280;4204;43.004;23.052;2022-09-02T18:11:14;93742.28;;;18.00;100.00
8334;BME280;4204;43.004;23.052;2022-09-02T18:13:49;93751.44;;;17.95;100.00
8334;BME280;4204;43.004;23.052;2022-09-02T18:16:29;93761.41;;;17.95;100.00
8334;BME280;4204;43.004;23.052;2022-09-02T18:19:08;93763.66;;;17.89;100.00
8334;BME280;4204;43.004;23.052;2022-09-02T18:21:43;93764.72;;;17.85;100.00
8334;BME280;4204;43.004;23.052;2022-09-02T18:24:22;93770.56;;;17.90;100.00
8334;BME280;4204;43.004;23.052;2022-09-02T18:27:00;93776.91;;;17.78;100.00
8334;BME280;4204;43.004;23.052;2022-09-02T18:29:48;93781.03;;;17.72;100.00
8334;BME280;4204;43.004;23.052;2022-09-02T18:32:33;93783.78;;;17.76;100.00
8334;BME280;4204;43.004;23.052;2022-09-02T18:35:19;93785.00;;;17.78;100.00
8334;BME280;4204;43.004;23.052;2022-09-02T18:37:56;93785.19;;;17.89;100.00
8334;BME280;4204;43.004;23.052;2022-09-02T18:40:30;93779.28;;;17.84;100.00
8334;BME280;4204;43.004;23.052;2022-09-02T18:43:06;93784.69;;;17.84;100.00
8334;BME280;4204;43.004;23.052;2022-09-02T18:45:44;93795.34;;;17.76;100.00
8334;BME280;4204;43.004;23.052;2022-09-02T18:48:16;93782.28;;;17.78;100.00